createdAt,value
2023-03-17T00:02:10.764Z,7.80
2023-03-17T00:04:39.625Z,9.00
2023-03-17T00:07:08.911Z,8.80
2023-03-17T00:09:37.391Z,8.00
2023-03-17T00:12:11.098Z,8.20
2023-03-17T00:14:39.695Z,9.40
2023-03-17T00:17:11.899Z,10.00
2023-03-17T00:19:41.656Z,8.70
2023-03-17T00:22:38.307Z,10.00
2023-03-17T00:25:18.970Z,8.90
2023-03-17T00:27:47.448Z,8.10
2023-03-17T00:30:17.213Z,10.10
2023-03-17T00:32:50.091Z,9.30
2023-03-17T00:35:22.097Z,10.10
2023-03-17T00:37:53.037Z,9.20
2023-03-17T00:40:31.407Z,8.70
2023-03-17T00:43:03.724Z,8.10
2023-03-17T00:45:32.815Z,9.60
2023-03-17T00:48:01.621Z,9.90
2023-03-17T00:50:30.570Z,9.80
2023-03-17T00:52:59.384Z,11.20
2023-03-17T00:55:28.740Z,9.60
2023-03-17T00:57:57.267Z,9.90
2023-03-17T01:00:30.060Z,10.20
2023-03-17T01:02:58.835Z,9.10
2023-03-17T01:05:29.983Z,10.40
2023-03-17T01:07:59.400Z,10.20
2023-03-17T01:10:29.681Z,10.10
2023-03-17T01:12:59.412Z,8.60
2023-03-17T01:15:31.923Z,8.90
2023-03-17T01:18:02.046Z,9.20
2023-03-17T01:20:34.999Z,9.10
2023-03-17T01:23:04.517Z,10.20
2023-03-17T01:25:34.130Z,8.90
2023-03-17T01:28:02.586Z,9.40
2023-03-17T01:30:39.592Z,11.10
2023-03-17T01:33:09.773Z,9.50
2023-03-17T01:35:39.207Z,8.70
2023-03-17T01:38:09.007Z,9.90
2023-03-17T01:40:43.111Z,8.80
2023-03-17T01:43:11.697Z,8.50
2023-03-17T01:46:18.190Z,8.20
2023-03-17T01:49:06.944Z,9.20
2023-03-17T01:52:06.535Z,7.90
2023-03-17T01:54:53.988Z,7.50
2023-03-17T01:57:33.570Z,7.50
2023-03-17T02:00:16.422Z,7.50
2023-03-17T02:02:47.281Z,8.70
2023-03-17T02:05:19.116Z,7.20
2023-03-17T02:07:47.908Z,7.30
2023-03-17T02:10:18.302Z,8.20
2023-03-17T02:12:50.922Z,7.90
2023-03-17T02:15:20.158Z,8.20
2023-03-17T02:17:49.100Z,7.20
2023-03-17T02:20:17.603Z,7.80
2023-03-17T02:22:49.953Z,8.30
2023-03-17T02:25:20.413Z,8.70
2023-03-17T02:27:51.877Z,7.30
2023-03-17T02:30:24.219Z,7.40
2023-03-17T02:32:53.155Z,7.20
2023-03-17T02:35:23.734Z,6.70
2023-03-17T02:37:52.311Z,7.70
2023-03-17T02:40:23.547Z,6.90
2023-03-17T02:42:52.537Z,6.70
2023-03-17T02:45:21.323Z,4.20
2023-03-17T02:47:51.880Z,6.40
2023-03-17T02:50:26.303Z,7.30
2023-03-17T02:52:55.086Z,7.40
2023-03-17T02:55:23.670Z,7.40
2023-03-17T02:57:52.547Z,5.80
2023-03-17T03:00:21.952Z,6.30
2023-03-17T03:02:53.267Z,7.10
2023-03-17T03:05:21.989Z,5.80
2023-03-17T03:07:51.823Z,5.60
2023-03-17T03:10:20.374Z,7.10
2023-03-17T03:12:49.078Z,7.20
2023-03-17T03:15:18.154Z,8.00
2023-03-17T03:17:47.056Z,5.10
2023-03-17T03:20:15.847Z,6.20
2023-03-17T03:22:45.649Z,7.20
2023-03-17T03:25:14.349Z,6.70
2023-03-17T03:27:43.231Z,7.40
2023-03-17T03:30:12.527Z,7.00
2023-03-17T03:32:41.228Z,8.10
2023-03-17T03:35:11.128Z,7.80
2023-03-17T03:37:39.595Z,7.20
2023-03-17T03:40:09.528Z,8.00
2023-03-17T03:42:37.912Z,6.70
2023-03-17T03:45:07.304Z,7.20
2023-03-17T03:47:36.284Z,6.60
2023-03-17T03:50:05.337Z,6.20
2023-03-17T03:52:33.768Z,7.30
2023-03-17T03:55:02.641Z,6.70
2023-03-17T03:57:31.224Z,6.90
2023-03-17T03:59:59.811Z,5.80
2023-03-17T04:02:28.480Z,6.30
2023-03-17T04:04:57.651Z,7.60
2023-03-17T04:07:26.484Z,6.40
2023-03-17T04:09:55.381Z,5.20
2023-03-17T04:12:23.948Z,6.10
2023-03-17T04:14:52.542Z,4.30
2023-03-17T04:17:21.216Z,5.60
2023-03-17T04:19:49.702Z,5.90
2023-03-17T04:22:18.503Z,5.20
2023-03-17T04:24:47.371Z,4.60
2023-03-17T04:27:15.962Z,4.80
2023-03-17T04:29:44.667Z,6.30
2023-03-17T04:32:13.811Z,5.70
2023-03-17T04:34:42.935Z,6.00
2023-03-17T04:37:12.142Z,5.10
2023-03-17T04:39:40.826Z,5.90
2023-03-17T04:42:09.830Z,5.60
2023-03-17T04:44:38.525Z,4.80
2023-03-17T04:47:08.123Z,5.70
2023-03-17T04:49:36.802Z,4.60
2023-03-17T04:52:05.637Z,4.80
2023-03-17T04:54:34.196Z,5.90
2023-03-17T04:57:02.862Z,3.20
2023-03-17T04:59:31.745Z,4.10
2023-03-17T05:02:00.462Z,4.30
2023-03-17T05:04:31.902Z,5.30
2023-03-17T05:07:01.597Z,6.10
2023-03-17T05:09:30.191Z,5.50
2023-03-17T05:11:58.756Z,5.70
2023-03-17T05:14:27.642Z,4.00
2023-03-17T05:16:56.164Z,3.90
2023-03-17T05:19:24.823Z,5.60
2023-03-17T05:21:53.695Z,5.30
2023-03-17T05:24:22.390Z,5.60
2023-03-17T05:26:51.282Z,4.80
2023-03-17T05:29:19.841Z,6.70
2023-03-17T05:31:48.968Z,5.10
2023-03-17T05:34:17.843Z,3.20
2023-03-17T05:36:46.920Z,4.50
2023-03-17T05:39:15.417Z,5.30
2023-03-17T05:41:44.001Z,5.50
2023-03-17T05:44:12.688Z,5.40
2023-03-17T05:46:41.578Z,5.10
2023-03-17T05:49:10.481Z,5.60
2023-03-17T05:51:39.185Z,5.20
2023-03-17T05:54:09.201Z,5.80
2023-03-17T05:56:38.162Z,6.30
2023-03-17T05:59:06.862Z,5.30
2023-03-17T06:01:36.387Z,5.80
2023-03-17T06:04:05.050Z,5.50
2023-03-17T06:06:34.443Z,6.00
2023-03-17T06:09:03.253Z,5.70
2023-03-17T06:11:31.807Z,7.00
2023-03-17T06:14:00.407Z,5.30
2023-03-17T06:16:31.338Z,7.20
2023-03-17T06:19:00.327Z,6.90
2023-03-17T06:21:29.032Z,5.80
2023-03-17T06:23:57.497Z,6.50
2023-03-17T06:26:26.792Z,6.80
2023-03-17T06:28:55.369Z,5.40
2023-03-17T06:31:24.305Z,6.60
2023-03-17T06:33:52.845Z,6.30
2023-03-17T06:36:22.248Z,6.60
2023-03-17T06:38:51.345Z,6.60
2023-03-17T06:41:20.446Z,7.50
2023-03-17T06:43:49.024Z,7.20
2023-03-17T06:46:18.058Z,7.30
2023-03-17T06:48:46.806Z,6.70
2023-03-17T06:51:15.478Z,6.30
2023-03-17T06:53:44.493Z,6.00
2023-03-17T06:56:28.889Z,8.60
2023-03-17T06:58:59.259Z,7.20
2023-03-17T07:01:27.894Z,7.10
2023-03-17T07:03:56.943Z,6.80
2023-03-17T07:06:25.522Z,8.80
2023-03-17T07:08:54.099Z,8.20
2023-03-17T07:11:24.022Z,8.00
2023-03-17T07:13:53.004Z,7.90
2023-03-17T07:16:21.746Z,8.90
2023-03-17T07:18:51.119Z,7.70
2023-03-17T07:21:19.884Z,6.80
2023-03-17T07:23:48.482Z,7.70
2023-03-17T07:26:17.250Z,8.40
2023-03-17T07:28:45.975Z,9.00
2023-03-17T07:31:15.290Z,7.70
2023-03-17T07:33:43.943Z,7.50
2023-03-17T07:36:13.340Z,8.40
2023-03-17T07:38:42.018Z,7.70
2023-03-17T07:41:11.312Z,8.80
2023-03-17T07:43:39.990Z,8.00
2023-03-17T07:46:09.589Z,9.20
2023-03-17T07:48:42.591Z,6.90
2023-03-17T07:51:16.386Z,7.40
2023-03-17T07:53:46.322Z,8.80
2023-03-17T07:56:14.890Z,7.30
2023-03-17T07:58:44.151Z,8.70
2023-03-17T08:01:12.979Z,7.50
2023-03-17T08:03:41.946Z,7.10
2023-03-17T08:06:10.769Z,7.90
2023-03-17T08:08:39.663Z,6.80
2023-03-17T08:11:08.653Z,7.60
2023-03-17T08:13:37.457Z,6.30
2023-03-17T08:16:07.606Z,6.80
2023-03-17T08:18:37.256Z,7.50
2023-03-17T08:21:06.916Z,7.60
2023-03-17T08:23:36.018Z,6.70
2023-03-17T08:26:05.570Z,7.00
2023-03-17T08:28:37.164Z,7.10
2023-03-17T08:31:14.485Z,6.50
2023-03-17T08:33:45.628Z,7.70
2023-03-17T08:36:14.660Z,6.50
2023-03-17T08:38:45.211Z,7.20
2023-03-17T08:41:16.892Z,7.70
2023-03-17T08:43:46.447Z,7.00
2023-03-17T08:46:32.483Z,7.60
2023-03-17T08:49:02.250Z,6.50
2023-03-17T08:51:34.762Z,8.30
2023-03-17T08:54:04.328Z,6.10
2023-03-17T08:56:33.239Z,6.60
2023-03-17T08:59:02.738Z,6.00
2023-03-17T09:01:31.958Z,5.80
2023-03-17T09:04:01.409Z,5.30
2023-03-17T09:06:30.688Z,5.70
2023-03-17T09:09:00.856Z,6.70
2023-03-17T09:11:33.099Z,6.40
2023-03-17T09:14:01.832Z,6.50
2023-03-17T09:16:34.487Z,5.90
2023-03-17T09:19:04.191Z,6.10
2023-03-17T09:21:33.177Z,4.90
2023-03-17T09:24:02.677Z,5.10
2023-03-17T09:26:32.003Z,4.90
2023-03-17T09:29:02.009Z,4.30
2023-03-17T09:31:33.002Z,4.40
2023-03-17T09:34:01.718Z,5.60
2023-03-17T09:36:30.758Z,4.30
2023-03-17T09:39:00.433Z,4.70
2023-03-17T09:42:09.357Z,4.90
2023-03-17T09:44:54.428Z,3.60
2023-03-17T09:47:52.905Z,4.80
2023-03-17T09:50:43.209Z,5.20
2023-03-17T09:53:18.349Z,4.00
2023-03-17T09:55:50.903Z,4.10
2023-03-17T09:58:23.073Z,5.20
2023-03-17T10:00:52.275Z,4.00
2023-03-17T10:03:21.401Z,3.80
2023-03-17T10:05:50.538Z,3.80
2023-03-17T10:08:32.525Z,4.00
2023-03-17T10:11:23.880Z,3.30
2023-03-17T10:13:56.259Z,3.60
2023-03-17T10:16:38.830Z,3.00
2023-03-17T10:19:36.423Z,3.20
2023-03-17T10:22:13.608Z,3.50
2023-03-17T10:24:47.914Z,3.50
2023-03-17T10:27:17.748Z,3.50
2023-03-17T10:29:48.451Z,3.60
2023-03-17T10:32:17.573Z,3.60
2023-03-17T10:34:47.901Z,3.50
2023-03-17T10:37:23.524Z,2.70
2023-03-17T10:39:57.268Z,3.40
2023-03-17T10:42:26.718Z,3.50
2023-03-17T10:45:00.979Z,3.10
2023-03-17T10:47:36.092Z,3.00
2023-03-17T10:50:21.221Z,2.80
2023-03-17T10:52:58.256Z,2.90
2023-03-17T10:55:52.189Z,2.80
2023-03-17T10:58:32.085Z,3.10
2023-03-17T11:01:08.659Z,2.90
2023-03-17T11:03:40.176Z,2.80
2023-03-17T11:06:11.899Z,2.90
2023-03-17T11:08:51.232Z,2.70
2023-03-17T11:11:32.197Z,2.80
2023-03-17T11:14:14.985Z,2.90
2023-03-17T11:16:54.642Z,2.90
2023-03-17T11:19:30.198Z,2.90
2023-03-17T11:22:00.292Z,3.10
2023-03-17T11:24:33.529Z,3.00
2023-03-17T11:27:29.207Z,3.40
2023-03-17T11:30:07.288Z,2.70
2023-03-17T11:32:44.470Z,2.80
2023-03-17T11:35:34.751Z,2.70
2023-03-17T11:38:22.346Z,3.20
2023-03-17T11:40:57.969Z,3.10
2023-03-17T11:43:54.935Z,3.10
2023-03-17T11:46:34.107Z,2.80
2023-03-17T11:49:08.691Z,2.60
2023-03-17T11:51:59.795Z,3.00
2023-03-17T11:54:58.124Z,2.90
2023-03-17T11:58:11.088Z,3.20
2023-03-17T12:00:51.088Z,2.50
2023-03-17T12:03:42.309Z,3.20
2023-03-17T12:06:27.248Z,2.90
2023-03-17T12:09:04.299Z,2.50
2023-03-17T12:11:36.688Z,2.70
2023-03-17T12:14:20.806Z,2.80
2023-03-17T12:16:57.477Z,2.40
2023-03-17T12:19:39.841Z,2.40
2023-03-17T12:22:49.024Z,2.50
2023-03-17T12:25:28.333Z,2.50
2023-03-17T12:28:01.831Z,2.30
2023-03-17T12:30:39.253Z,2.50
2023-03-17T12:33:18.590Z,2.40
2023-03-17T12:35:48.548Z,2.50
2023-03-17T12:38:24.111Z,2.70
2023-03-17T12:41:11.875Z,2.50
2023-03-17T12:43:42.829Z,2.80
2023-03-17T12:46:17.580Z,2.20
2023-03-17T12:49:35.212Z,2.70
2023-03-17T12:52:35.161Z,2.10
2023-03-17T12:55:05.910Z,2.20
2023-03-17T12:57:44.533Z,2.90
2023-03-17T13:00:30.027Z,2.70
2023-03-17T13:03:32.662Z,2.80
2023-03-17T13:06:06.095Z,2.90
2023-03-17T13:08:41.532Z,3.20
2023-03-17T13:11:38.408Z,3.00
2023-03-17T13:14:28.276Z,3.20
2023-03-17T13:17:29.230Z,3.30
2023-03-17T13:20:12.963Z,2.80
2023-03-17T13:22:46.714Z,2.60
2023-03-17T13:25:27.757Z,2.40
2023-03-17T13:28:17.705Z,3.10
2023-03-17T13:30:57.642Z,2.80
2023-03-17T13:33:32.922Z,2.50
2023-03-17T13:36:36.813Z,3.00
2023-03-17T13:39:57.626Z,2.50
2023-03-17T13:43:01.937Z,2.50
2023-03-17T13:45:41.741Z,2.60
2023-03-17T13:48:30.742Z,2.60
2023-03-17T13:51:14.978Z,2.90
2023-03-17T13:54:12.050Z,2.80
2023-03-17T13:56:47.258Z,2.70
2023-03-17T13:59:20.480Z,2.40
2023-03-17T14:02:07.218Z,2.70
2023-03-17T14:05:09.057Z,3.10
2023-03-17T14:08:02.310Z,2.50
2023-03-17T14:10:33.251Z,2.70
2023-03-17T14:13:21.082Z,2.90
2023-03-17T14:16:11.181Z,3.00
2023-03-17T14:18:42.926Z,2.60
2023-03-17T14:21:30.192Z,2.60
2023-03-17T14:24:01.274Z,3.50
2023-03-17T14:26:31.616Z,3.00
2023-03-17T14:29:02.984Z,2.60
2023-03-17T14:31:31.619Z,2.50
2023-03-17T14:34:01.782Z,2.70
2023-03-17T14:36:33.863Z,2.50
2023-03-17T14:39:03.546Z,2.70
2023-03-17T14:41:35.283Z,2.20
2023-03-17T14:44:06.984Z,2.60
2023-03-17T14:46:37.656Z,2.40
2023-03-17T14:49:20.871Z,2.40
2023-03-17T14:51:51.665Z,2.40
2023-03-17T14:54:24.304Z,2.60
2023-03-17T14:57:02.457Z,2.80
2023-03-17T14:59:35.843Z,2.70
2023-03-17T15:02:21.667Z,2.90
2023-03-17T15:04:53.825Z,3.10
2023-03-17T15:07:48.592Z,2.50
2023-03-17T15:10:19.843Z,2.80
2023-03-17T15:12:49.142Z,3.30
2023-03-17T15:15:30.318Z,3.30
2023-03-17T15:18:01.818Z,3.50
2023-03-17T15:20:33.273Z,2.60
2023-03-17T15:23:16.068Z,3.30
2023-03-17T15:25:52.128Z,2.90
2023-03-17T15:28:22.414Z,3.10
2023-03-17T15:30:53.702Z,3.10
2023-03-17T15:33:30.939Z,3.20
2023-03-17T15:36:00.662Z,3.50
2023-03-17T15:38:29.887Z,3.90
2023-03-17T15:40:58.651Z,3.70
2023-03-17T15:43:27.550Z,3.30
2023-03-17T15:46:03.335Z,3.90
2023-03-17T15:48:36.442Z,3.60
2023-03-17T15:51:06.267Z,3.30
2023-03-17T15:53:34.893Z,4.30
2023-03-17T15:56:03.547Z,3.70
2023-03-17T15:58:33.689Z,3.70
2023-03-17T16:01:03.956Z,3.80
2023-03-17T16:03:42.233Z,4.40
2023-03-17T16:06:18.218Z,4.30
2023-03-17T16:08:48.173Z,4.20
2023-03-17T16:11:28.583Z,4.20
2023-03-17T16:13:59.464Z,4.60
2023-03-17T16:16:46.104Z,4.90
2023-03-17T16:19:22.289Z,5.60
2023-03-17T16:21:51.547Z,4.80
2023-03-17T16:24:23.258Z,4.90
2023-03-17T16:26:53.535Z,4.70
2023-03-17T16:29:22.193Z,5.30
2023-03-17T16:31:51.800Z,5.20
2023-03-17T16:34:23.013Z,4.80
2023-03-17T16:36:51.768Z,5.70
2023-03-17T16:39:23.500Z,6.00
2023-03-17T16:41:53.817Z,5.10
2023-03-17T16:44:23.869Z,4.60
2023-03-17T16:46:53.966Z,5.10
2023-03-17T16:49:23.372Z,4.50
2023-03-17T16:51:52.137Z,4.30
2023-03-17T16:54:20.949Z,4.20
2023-03-17T16:56:52.053Z,4.60
2023-03-17T16:59:25.163Z,4.60
2023-03-17T17:01:55.306Z,3.90
2023-03-17T17:04:25.304Z,4.30
2023-03-17T17:06:56.143Z,3.90
2023-03-17T17:09:26.887Z,5.10
2023-03-17T17:11:56.389Z,4.40
2023-03-17T17:14:25.790Z,5.70
2023-03-17T17:16:55.470Z,5.10
2023-03-17T17:19:25.404Z,5.80
2023-03-17T17:21:59.901Z,5.10
2023-03-17T17:24:30.638Z,5.40
2023-03-17T17:27:00.291Z,6.40
2023-03-17T17:29:32.267Z,5.90
2023-03-17T17:32:02.271Z,4.80
2023-03-17T17:34:33.740Z,6.10
2023-03-17T17:37:04.039Z,6.00
2023-03-17T17:39:35.090Z,7.10
2023-03-17T17:42:06.177Z,6.60
2023-03-17T17:44:37.172Z,6.90
2023-03-17T17:47:09.965Z,8.30
2023-03-17T17:49:43.769Z,6.60
2023-03-17T17:52:18.658Z,7.10
2023-03-17T17:54:49.960Z,7.20
2023-03-17T17:57:20.389Z,7.60
2023-03-17T17:59:51.370Z,8.40
2023-03-17T18:02:23.329Z,6.70
2023-03-17T18:04:54.545Z,5.70
2023-03-17T18:07:27.441Z,5.90
2023-03-17T18:09:59.924Z,7.10
2023-03-17T18:12:30.315Z,6.70
2023-03-17T18:15:00.806Z,7.00
2023-03-17T18:17:33.037Z,7.80
2023-03-17T18:20:11.782Z,6.00
2023-03-17T18:22:44.101Z,6.60
2023-03-17T18:25:16.705Z,7.20
2023-03-17T18:27:49.243Z,7.80
2023-03-17T18:30:24.150Z,8.00
2023-03-17T18:33:03.886Z,8.50
2023-03-17T18:35:36.757Z,7.70
2023-03-17T18:38:08.524Z,8.40
2023-03-17T18:40:39.217Z,9.60
2023-03-17T18:43:09.822Z,9.40
2023-03-17T18:45:40.729Z,9.30
2023-03-17T18:48:13.419Z,9.50
2023-03-17T18:50:45.787Z,9.00
2023-03-17T18:53:16.921Z,8.00
2023-03-17T18:55:48.292Z,8.80
2023-03-17T18:58:19.914Z,8.20
2023-03-17T19:00:52.259Z,8.00
2023-03-17T19:03:23.501Z,7.90
2023-03-17T19:05:54.613Z,7.60
2023-03-17T19:08:27.691Z,7.60
2023-03-17T19:10:58.714Z,7.70
2023-03-17T19:13:29.436Z,8.40
2023-03-17T19:16:00.092Z,8.80
2023-03-17T19:18:30.712Z,8.50
2023-03-17T19:21:01.793Z,7.90
2023-03-17T19:23:34.087Z,8.90
2023-03-17T19:26:06.446Z,8.20
2023-03-17T19:28:38.446Z,8.60
2023-03-17T19:31:09.310Z,8.70
2023-03-17T19:33:45.300Z,8.60
2023-03-17T19:36:15.888Z,8.90
2023-03-17T19:38:46.102Z,9.70
2023-03-17T19:41:17.307Z,9.70
2023-03-17T19:43:50.771Z,10.30
2023-03-17T19:46:20.701Z,10.70
2023-03-17T19:48:51.030Z,11.20
2023-03-17T19:51:24.036Z,12.20
2023-03-17T19:53:57.404Z,11.60
2023-03-17T19:56:33.358Z,11.10
2023-03-17T19:59:07.741Z,13.00
2023-03-17T20:01:39.925Z,11.60
2023-03-17T20:04:14.829Z,10.40
2023-03-17T20:06:45.456Z,14.00
2023-03-17T20:09:20.081Z,11.50
2023-03-17T20:11:54.642Z,11.80
2023-03-17T20:14:26.191Z,10.30
2023-03-17T20:16:57.693Z,8.90
2023-03-17T20:19:29.099Z,11.20
2023-03-17T20:21:59.975Z,11.30
2023-03-17T20:24:35.351Z,10.50
2023-03-17T20:27:08.841Z,10.80
2023-03-17T20:29:40.477Z,11.50
2023-03-17T20:32:12.077Z,9.00
2023-03-17T20:34:45.715Z,8.70
2023-03-17T20:37:16.842Z,8.50
2023-03-17T20:39:48.894Z,8.60
2023-03-17T20:42:20.748Z,9.70
2023-03-17T20:44:55.329Z,9.70
2023-03-17T20:47:29.608Z,8.60
2023-03-17T20:50:01.613Z,10.30
2023-03-17T20:52:35.500Z,7.10
2023-03-17T20:55:09.360Z,8.40
2023-03-17T20:57:39.840Z,9.70
2023-03-17T21:00:18.723Z,8.50
2023-03-17T21:02:52.423Z,9.60
2023-03-17T21:05:26.362Z,10.30
2023-03-17T21:07:57.433Z,9.90
2023-03-17T21:10:33.013Z,10.80
2023-03-17T21:13:03.530Z,10.20
2023-03-17T21:15:33.483Z,9.30
2023-03-17T21:18:03.129Z,9.30
2023-03-17T21:20:36.996Z,9.30
2023-03-17T21:23:08.187Z,10.80
2023-03-17T21:25:39.229Z,10.60
2023-03-17T21:28:11.527Z,10.90
2023-03-17T21:30:44.388Z,10.60
2023-03-17T21:33:17.329Z,9.50
2023-03-17T21:35:48.415Z,10.00
2023-03-17T21:38:20.855Z,8.40
2023-03-17T21:40:58.746Z,9.20
2023-03-17T21:43:29.705Z,9.00
2023-03-17T21:45:59.159Z,9.90
2023-03-17T21:48:28.623Z,8.40
2023-03-17T21:50:58.640Z,7.30
2023-03-17T21:53:27.339Z,7.30
2023-03-17T21:55:57.043Z,9.10
2023-03-17T21:58:26.456Z,9.10
2023-03-17T22:00:55.146Z,9.20
2023-03-17T22:03:24.992Z,8.20
2023-03-17T22:05:53.841Z,8.00
2023-03-17T22:08:23.047Z,7.70
2023-03-17T22:10:52.946Z,8.60
2023-03-17T22:13:21.634Z,8.60
2023-03-17T22:15:50.323Z,8.70
2023-03-17T22:18:19.099Z,7.60
2023-03-17T22:20:48.840Z,7.60
2023-03-17T22:23:17.727Z,7.10
2023-03-17T22:25:47.005Z,7.50
2023-03-17T22:28:16.003Z,7.10
2023-03-17T22:30:46.417Z,6.80
2023-03-17T22:33:15.628Z,6.40
2023-03-17T22:35:44.651Z,7.40
2023-03-17T22:38:13.629Z,6.40
2023-03-17T22:40:42.304Z,7.40
2023-03-17T22:43:11.604Z,7.10
2023-03-17T22:45:40.537Z,6.60
2023-03-17T22:48:09.265Z,7.30
2023-03-17T22:50:38.064Z,7.20
2023-03-17T22:53:06.748Z,6.60
2023-03-17T22:55:36.468Z,7.60
2023-03-17T22:58:05.405Z,5.50
2023-03-17T23:00:34.044Z,6.70
2023-03-17T23:03:03.333Z,6.70
2023-03-17T23:05:31.931Z,6.20
2023-03-17T23:08:01.945Z,6.20
2023-03-17T23:10:33.779Z,6.50
2023-03-17T23:13:02.711Z,5.80
2023-03-17T23:15:31.633Z,6.80
2023-03-17T23:18:01.286Z,7.30
2023-03-17T23:20:30.690Z,8.00
2023-03-17T23:22:59.680Z,8.10
2023-03-17T23:25:28.268Z,7.30
2023-03-17T23:27:57.355Z,7.90
2023-03-17T23:30:26.460Z,7.30
2023-03-17T23:32:56.006Z,7.40
2023-03-17T23:35:25.494Z,8.00
2023-03-17T23:37:54.347Z,7.30
2023-03-17T23:40:24.252Z,8.50
2023-03-17T23:42:54.777Z,7.00
2023-03-17T23:45:23.670Z,6.40
2023-03-17T23:47:53.381Z,6.90
2023-03-17T23:50:22.381Z,7.50
2023-03-17T23:52:50.977Z,6.60
2023-03-17T23:55:19.847Z,5.90
2023-03-17T23:57:49.681Z,7.20
